Time;durP1;ratioP1;P1;durP2;ratioP2;P2;SDS_P1;SDS_P2;PMS_P1;PMS_P2;Temp;Humidity;BMP_temperature;BMP_pressure;BME280_temperature;BME280_humidity;BME280_pressure;Samples;Min_cycle;Max_cycle;Signal;HPM_P1;HPM_P2
2021/11/20 00:00:16;;;;;;;24.20;14.43;;;8.60;91.60;;;;;;5055956;28;20072;-35
2021/11/20 00:02:41;;;;;;;26.40;13.25;;;8.60;91.60;;;;;;5055423;28;20033;-36
2021/11/20 00:05:10;;;;;;;23.77;15.20;;;8.60;91.70;;;;;;5056046;28;20353;-36
2021/11/20 00:07:36;;;;;;;25.20;14.75;;;8.60;91.70;;;;;;5054272;28;20036;-36
2021/11/20 00:10:05;;;;;;;23.02;14.45;;;8.60;91.70;;;;;;5055897;28;20033;-35
2021/11/20 00:12:32;;;;;;;24.40;15.52;;;8.60;91.70;;;;;;5055141;28;20079;-36
2021/11/20 00:14:59;;;;;;;23.77;14.20;;;8.60;91.70;;;;;;5055890;28;20417;-35
2021/11/20 00:17:26;;;;;;;21.27;14.55;;;8.60;91.70;;;;;;5055649;28;20104;-35
2021/11/20 00:19:52;;;;;;;27.00;15.18;;;8.60;91.70;;;;;;5054457;28;20029;-35
2021/11/20 00:22:34;;;;;;;23.08;14.70;;;8.60;91.70;;;;;;5055168;28;20025;-35
2021/11/20 00:25:06;;;;;;;25.00;13.80;;;8.60;91.70;;;;;;5055950;28;20319;-35
2021/11/20 00:27:34;;;;;;;26.08;15.30;;;8.60;91.70;;;;;;5055249;28;20028;-36
2021/11/20 00:30:12;;;;;;;24.63;14.38;;;8.60;91.70;;;;;;5055906;28;20445;-35
2021/11/20 00:32:41;;;;;;;29.52;15.23;;;8.60;91.70;;;;;;5055224;28;20070;-35
2021/11/20 00:35:10;;;;;;;24.50;15.07;;;8.60;91.70;;;;;;5055641;28;20029;-35
2021/11/20 00:37:36;;;;;;;22.20;13.32;;;8.60;91.80;;;;;;5054807;28;20068;-36
2021/11/20 00:40:05;;;;;;;23.58;14.75;;;8.60;91.80;;;;;;5055553;28;20059;-35
2021/11/20 00:42:31;;;;;;;26.88;14.63;;;8.60;91.80;;;;;;5057667;28;20121;-36
2021/11/20 00:44:57;;;;;;;26.05;15.35;;;8.60;91.90;;;;;;5059517;28;20547;-35
2021/11/20 00:47:23;;;;;;;20.27;13.30;;;8.60;91.90;;;;;;5058673;28;20025;-35
2021/11/20 00:49:50;;;;;;;24.33;14.52;;;8.60;91.90;;;;;;5058675;28;20392;-36
2021/11/20 00:52:16;;;;;;;26.10;15.32;;;8.60;91.90;;;;;;5059084;28;20025;-36
2021/11/20 00:54:43;;;;;;;28.80;16.17;;;8.60;91.90;;;;;;5059216;28;20044;-36
2021/11/20 00:57:11;;;;;;;27.45;15.20;;;8.70;91.90;;;;;;5058460;28;20033;-36
2021/11/20 00:59:38;;;;;;;29.67;15.30;;;8.60;92.10;;;;;;5059096;28;20345;-35
2021/11/20 01:02:05;;;;;;;28.20;16.27;;;8.70;91.90;;;;;;5058081;28;20443;-35
2021/11/20 01:04:33;;;;;;;24.77;14.55;;;8.70;91.90;;;;;;5059292;28;20029;-37
2021/11/20 01:06:59;;;;;;;29.27;16.10;;;8.70;91.80;;;;;;5058378;28;20021;-35
2021/11/20 01:09:33;;;;;;;25.15;15.13;;;8.70;91.80;;;;;;5058803;28;20037;-36
2021/11/20 01:12:03;;;;;;;23.13;14.75;;;8.70;91.90;;;;;;5058216;28;20025;-36
2021/11/20 01:14:30;;;;;;;;;;;8.70;91.90;;;;;;5059305;28;20321;-35
2021/11/20 01:16:57;;;;;;;24.60;13.18;;;8.70;91.60;;;;;;5058185;28;19951;-36
2021/11/20 01:19:24;;;;;;;23.45;14.20;;;8.70;91.90;;;;;;5058423;28;20041;-35
2021/11/20 01:21:52;;;;;;;25.60;14.15;;;8.70;92.00;;;;;;5058223;28;20041;-35
2021/11/20 01:24:19;;;;;;;25.95;14.35;;;8.70;92.10;;;;;;5058630;28;20037;-35
2021/11/20 01:26:45;;;;;;;23.30;13.55;;;8.70;92.20;;;;;;5057947;28;20036;-35
2021/11/20 01:29:13;;;;;;;22.00;13.45;;;8.70;92.20;;;;;;5058575;28;20055;-36
2021/11/20 01:31:41;;;;;;;22.95;12.85;;;8.70;92.10;;;;;;5058124;28;20040;-36
2021/11/20 01:34:08;;;;;;;20.48;12.65;;;8.70;92.40;;;;;;5058459;28;20033;-36
2021/11/20 01:36:36;;;;;;;20.88;12.73;;;8.70;92.20;;;;;;5057845;28;20029;-37
2021/11/20 01:39:07;;;;;;;18.83;11.55;;;8.70;92.20;;;;;;5058231;28;20441;-35
2021/11/20 01:41:33;;;;;;;22.63;12.82;;;8.70;92.20;;;;;;5057965;28;20021;-36
2021/11/20 01:44:13;;;;;;;20.95;12.95;;;8.80;92.30;;;;;;5058109;28;20129;-36
2021/11/20 01:46:47;;;;;;;19.80;11.88;;;8.80;92.30;;;;;;5057997;28;20401;-36
2021/11/20 01:49:26;;;;;;;20.48;11.32;;;8.70;92.30;;;;;;5058234;28;20045;-36
2021/11/20 01:52:09;;;;;;;20.85;11.27;;;8.80;92.30;;;;;;5057355;28;20029;-36
2021/11/20 01:55:06;;;;;;;18.02;10.73;;;8.80;92.40;;;;;;5058038;28;20041;-37
2021/11/20 01:57:38;;;;;;;15.82;9.98;;;8.80;92.30;;;;;;5057533;28;20029;-36
2021/11/20 02:00:12;;;;;;;16.15;9.70;;;8.70;92.50;;;;;;5057830;28;20040;-36
2021/11/20 02:02:46;;;;;;;17.48;10.20;;;8.70;92.50;;;;;;5057262;28;20029;-36
2021/11/20 02:05:19;;;;;;;17.17;10.20;;;8.70;92.60;;;;;;5057539;28;20029;-37
2021/11/20 02:07:48;;;;;;;17.85;9.98;;;8.80;92.60;;;;;;5057145;28;20353;-36
2021/11/20 02:10:31;;;;;;;15.75;9.52;;;8.80;93.00;;;;;;5057292;28;20021;-36
2021/11/20 02:13:02;;;;;;;15.73;9.95;;;8.80;92.70;;;;;;5057066;28;20033;-36
2021/11/20 02:15:33;;;;;;;17.02;9.50;;;8.80;92.80;;;;;;5057762;28;20405;-36
2021/11/20 02:18:00;;;;;;;16.92;10.13;;;8.80;92.90;;;;;;5057099;28;20033;-38
2021/11/20 02:20:53;;;;;;;14.25;8.10;;;8.80;93.00;;;;;;5057162;28;20078;-37
2021/11/20 02:23:19;;;;;;;13.65;8.02;;;8.80;92.90;;;;;;5056786;28;20401;-36
2021/11/20 02:25:44;;;;;;;14.13;8.57;;;8.80;93.00;;;;;;5057164;28;20078;-35
2021/11/20 02:28:10;;;;;;;13.38;8.20;;;8.80;93.00;;;;;;5056787;28;20083;-35
2021/11/20 02:30:41;;;;;;;12.48;7.93;;;8.80;93.00;;;;;;5057125;28;20037;-36
2021/11/20 02:33:11;;;;;;;;;;;8.90;93.00;;;;;;5057432;28;20036;-35
2021/11/20 02:35:49;;;;;;;13.18;7.93;;;8.90;92.70;;;;;;5056872;28;20003;-36
2021/11/20 02:38:37;;;;;;;11.90;7.05;;;8.90;93.00;;;;;;5056815;28;20040;-36
2021/11/20 02:41:04;;;;;;;12.23;7.97;;;8.90;93.10;;;;;;5056379;28;20049;-35
2021/11/20 02:43:36;;;;;;;10.80;6.85;;;8.90;93.10;;;;;;5056885;28;20429;-35
2021/11/20 02:46:03;;;;;;;11.63;6.80;;;8.90;93.10;;;;;;5056962;28;20098;-35
2021/11/20 02:48:29;;;;;;;11.52;7.65;;;8.90;93.10;;;;;;5056995;28;20432;-34
2021/11/20 02:51:09;;;;;;;10.30;6.95;;;8.90;93.20;;;;;;5056634;28;20100;-35
2021/11/20 02:53:37;;;;;;;12.02;7.55;;;8.90;93.20;;;;;;5056798;28;20414;-35
2021/11/20 02:56:06;;;;;;;11.10;7.18;;;9.00;93.30;;;;;;5055180;28;20029;-35
2021/11/20 02:58:32;;;;;;;14.35;7.78;;;9.00;93.30;;;;;;5056687;28;20040;-36
2021/11/20 03:01:17;;;;;;;11.20;7.07;;;9.00;93.30;;;;;;5056350;28;20401;-35
2021/11/20 03:03:43;;;;;;;12.13;8.00;;;9.00;93.20;;;;;;5056024;28;20087;-35
2021/11/20 03:06:08;;;;;;;12.07;7.68;;;9.00;93.30;;;;;;5056211;28;20318;-36
2021/11/20 03:08:35;;;;;;;13.77;7.80;;;9.10;93.30;;;;;;5056623;28;20045;-35
2021/11/20 03:11:00;;;;;;;12.60;7.63;;;9.10;93.30;;;;;;5056066;28;20037;-35
2021/11/20 03:13:26;;;;;;;10.35;7.25;;;9.10;93.30;;;;;;5056429;28;20037;-36
2021/11/20 03:15:52;;;;;;;13.05;7.50;;;9.10;93.30;;;;;;5056030;28;20090;-35
2021/11/20 03:18:18;;;;;;;13.02;7.90;;;9.20;93.40;;;;;;5056026;28;20108;-35
2021/11/20 03:20:44;;;;;;;11.88;7.60;;;9.20;93.40;;;;;;5055143;28;20028;-35
2021/11/20 03:23:29;;;;;;;11.23;7.13;;;9.20;93.40;;;;;;5055730;28;20033;-35
2021/11/20 03:25:55;;;;;;;11.80;7.10;;;9.20;93.30;;;;;;5055308;28;20029;-36
2021/11/20 03:28:20;;;;;;;11.57;7.65;;;9.20;93.40;;;;;;5056061;28;20112;-36
2021/11/20 03:30:46;;;;;;;13.02;7.72;;;9.30;93.70;;;;;;5056259;28;20370;-36
2021/11/20 03:33:13;;;;;;;10.75;7.30;;;9.30;93.50;;;;;;5055838;28;20128;-35
2021/11/20 03:35:39;;;;;;;13.50;8.05;;;9.30;93.50;;;;;;5055977;28;20055;-35
2021/11/20 03:38:05;;;;;;;12.32;8.07;;;9.40;93.50;;;;;;5055673;28;20063;-35
2021/11/20 03:40:32;;;;;;;12.68;8.02;;;9.40;93.50;;;;;;5055720;28;20068;-37
2021/11/20 03:42:58;;;;;;;14.52;8.75;;;9.40;93.50;;;;;;5055469;28;20106;-35
2021/11/20 03:45:29;;;;;;;11.85;8.15;;;9.40;93.60;;;;;;5055939;28;20025;-34
2021/11/20 03:47:55;;;;;;;15.18;8.55;;;9.40;93.60;;;;;;5055459;28;20027;-35
2021/11/20 03:50:21;;;;;;;12.90;7.72;;;9.50;93.60;;;;;;5055807;28;20037;-34
2021/11/20 03:52:47;;;;;;;12.02;8.10;;;9.50;93.70;;;;;;5055243;28;20477;-35
2021/11/20 03:55:17;;;;;;;14.00;8.82;;;9.50;93.70;;;;;;5054607;28;20120;-37
2021/11/20 03:57:43;;;;;;;15.63;8.10;;;9.60;93.70;;;;;;5055731;28;20494;-36
2021/11/20 04:00:14;;;;;;;12.73;7.88;;;9.60;93.70;;;;;;5055390;28;20045;-36
2021/11/20 04:02:39;;;;;;;;;;;9.60;93.70;;;;;;5055675;28;20108;-35
2021/11/20 04:05:07;;;;;;;17.20;8.60;;;9.60;93.30;;;;;;5056045;28;20021;-36
2021/11/20 04:07:32;;;;;;;12.82;8.27;;;9.60;93.60;;;;;;5055340;28;20180;-35
2021/11/20 04:09:58;;;;;;;12.77;7.90;;;9.70;93.70;;;;;;5055943;28;20029;-35
2021/11/20 04:12:24;;;;;;;13.25;8.57;;;9.70;93.80;;;;;;5055334;28;20033;-36
2021/11/20 04:14:49;;;;;;;14.07;8.90;;;9.70;93.80;;;;;;5055763;28;20127;-36
2021/11/20 04:17:15;;;;;;;20.17;10.18;;;9.80;93.80;;;;;;5058056;28;20109;-35
2021/11/20 04:19:41;;;;;;;16.05;9.20;;;9.80;93.80;;;;;;5059724;28;20136;-35
2021/11/20 04:22:07;;;;;;;12.57;8.45;;;9.80;93.80;;;;;;5059131;28;20104;-36
2021/11/20 04:24:34;;;;;;;13.07;8.60;;;9.90;93.90;;;;;;5059918;28;20406;-34
2021/11/20 04:26:59;;;;;;;14.60;8.30;;;9.90;93.90;;;;;;5059363;28;20025;-35
2021/11/20 04:29:25;;;;;;;14.25;8.63;;;9.90;93.90;;;;;;5059623;28;20040;-35
2021/11/20 04:31:51;;;;;;;12.38;7.53;;;9.90;93.80;;;;;;5059037;28;20075;-36
2021/11/20 04:34:17;;;;;;;12.88;8.15;;;10.00;93.80;;;;;;5059618;28;20048;-36
2021/11/20 04:36:43;;;;;;;13.20;8.05;;;10.10;93.70;;;;;;5058893;28;20029;-36
2021/11/20 04:39:11;;;;;;;11.57;7.93;;;10.10;93.70;;;;;;5059559;28;20075;-35
2021/11/20 04:41:38;;;;;;;11.10;7.55;;;10.10;93.70;;;;;;5058764;28;20070;-35
2021/11/20 04:44:04;;;;;;;11.75;7.85;;;10.20;93.70;;;;;;5059061;28;20060;-35
2021/11/20 04:46:30;;;;;;;9.95;7.00;;;10.20;93.70;;;;;;5058716;28;20025;-35
2021/11/20 04:48:56;;;;;;;13.20;7.25;;;10.30;93.70;;;;;;5059191;28;20044;-35
2021/11/20 04:51:23;;;;;;;12.48;7.60;;;10.30;93.60;;;;;;5058897;28;20021;-37
2021/11/20 04:53:49;;;;;;;10.60;7.25;;;10.30;93.60;;;;;;5059069;28;20029;-35
2021/11/20 04:56:18;;;;;;;12.32;7.35;;;10.30;93.70;;;;;;5058898;28;20028;-35
2021/11/20 04:58:45;;;;;;;13.27;7.53;;;10.40;93.60;;;;;;5058979;28;20025;-35
2021/11/20 05:01:11;;;;;;;12.68;7.50;;;10.40;93.50;;;;;;5058850;28;20029;-36
2021/11/20 05:03:38;;;;;;;11.43;6.97;;;10.40;93.60;;;;;;5058595;28;20059;-36
2021/11/20 05:06:05;;;;;;;11.90;7.53;;;10.40;93.60;;;;;;5058409;28;20104;-35
2021/11/20 05:08:31;;;;;;;13.38;8.45;;;10.40;93.60;;;;;;5058653;28;20112;-37
2021/11/20 05:10:57;;;;;;;10.68;6.97;;;10.40;93.60;;;;;;5058329;28;20457;-35
2021/11/20 05:13:25;;;;;;;11.38;7.07;;;10.50;93.60;;;;;;5058478;28;20064;-37
2021/11/20 05:15:52;;;;;;;11.52;6.53;;;10.50;93.70;;;;;;5058715;28;20356;-35
2021/11/20 05:18:18;;;;;;;13.00;6.65;;;10.40;93.60;;;;;;5058229;28;20436;-36
2021/11/20 05:20:45;;;;;;;10.32;6.70;;;10.50;93.70;;;;;;5058589;28;20029;-36
2021/11/20 05:23:12;;;;;;;11.85;7.60;;;10.50;93.70;;;;;;5058162;28;20029;-36
2021/11/20 05:25:38;;;;;;;10.40;6.28;;;10.50;93.70;;;;;;5058090;28;20410;-35
2021/11/20 05:28:04;;;;;;;10.20;6.40;;;10.60;93.70;;;;;;5057528;28;20029;-37
2021/11/20 05:30:37;;;;;;;8.18;5.47;;;10.60;93.60;;;;;;5058531;28;20029;-37
2021/11/20 05:33:11;;;;;;;9.07;5.30;;;10.60;93.60;;;;;;5057949;28;20110;-36
2021/11/20 05:35:38;;;;;;;9.45;5.25;;;10.60;93.60;;;;;;5058021;28;20372;-36
2021/11/20 05:38:04;;;;;;;9.35;5.35;;;10.60;93.50;;;;;;5057633;28;20075;-37
2021/11/20 05:40:31;;;;;;;8.05;4.95;;;10.70;93.70;;;;;;5057755;28;20036;-35
2021/11/20 05:42:59;;;;;;;9.55;5.20;;;10.70;93.40;;;;;;5057477;28;20346;-35
2021/11/20 05:45:28;;;;;;;6.85;4.93;;;10.80;93.40;;;;;;5057963;28;20032;-35
2021/11/20 05:47:54;;;;;;;8.18;5.13;;;10.80;93.30;;;;;;5057904;28;20397;-36
2021/11/20 05:50:21;;;;;;;7.93;5.25;;;10.80;93.20;;;;;;5057720;28;20033;-35
2021/11/20 05:52:49;;;;;;;8.40;4.65;;;10.80;93.10;;;;;;5057177;28;20035;-36
2021/11/20 05:55:16;;;;;;;6.07;4.53;;;10.80;93.10;;;;;;5057872;28;20025;-36
2021/11/20 05:57:43;;;;;;;7.63;4.53;;;10.90;93.10;;;;;;5057229;28;20037;-37
2021/11/20 06:00:13;;;;;;;7.75;4.47;;;10.90;93.00;;;;;;5057331;28;20135;-37
2021/11/20 06:02:40;;;;;;;6.88;4.53;;;10.90;93.00;;;;;;5057103;28;20325;-37
2021/11/20 06:05:06;;;;;;;7.25;4.47;;;11.00;93.00;;;;;;5057765;28;20025;-36
2021/11/20 06:07:32;;;;;;;6.10;4.13;;;11.00;92.90;;;;;;5057116;28;20368;-36
2021/11/20 06:09:58;;;;;;;6.40;4.15;;;11.00;92.80;;;;;;5057627;28;20039;-37
2021/11/20 06:12:25;;;;;;;4.97;3.67;;;11.00;92.80;;;;;;5056665;28;20028;-36
2021/11/20 06:14:51;;;;;;;6.47;4.13;;;11.10;92.70;;;;;;5057485;28;20087;-36
2021/11/20 06:17:17;;;;;;;4.57;3.75;;;11.10;92.60;;;;;;5057263;28;20033;-36
2021/11/20 06:19:43;;;;;;;5.82;4.10;;;11.10;92.50;;;;;;5057107;28;20041;-36
2021/11/20 06:22:09;;;;;;;8.93;4.13;;;11.10;92.40;;;;;;5056817;28;20521;-36
2021/11/20 06:24:35;;;;;;;5.30;3.85;;;11.10;92.40;;;;;;5057296;28;20037;-36
2021/11/20 06:27:01;;;;;;;8.18;3.83;;;11.20;92.40;;;;;;5056785;28;20037;-35
2021/11/20 06:29:27;;;;;;;5.57;3.72;;;11.10;92.30;;;;;;5057316;28;20352;-35
2021/11/20 06:31:53;;;;;;;8.02;4.40;;;11.20;92.20;;;;;;5055440;28;20110;-36
2021/11/20 06:34:21;;;;;;;6.28;3.83;;;11.20;92.10;;;;;;5057060;28;20076;-36
2021/11/20 06:36:47;;;;;;;8.23;3.85;;;11.20;92.00;;;;;;5056551;28;20032;-36
2021/11/20 06:39:14;;;;;;;6.85;4.97;;;11.30;92.00;;;;;;5055912;28;20044;-36
2021/11/20 06:41:41;;;;;;;4.85;3.45;;;11.30;91.90;;;;;;5056386;28;20032;-37
2021/11/20 06:44:07;;;;;;;5.45;3.40;;;11.30;91.80;;;;;;5056447;28;20061;-36
2021/11/20 06:46:34;;;;;;;3.95;3.00;;;11.30;91.80;;;;;;5056164;28;20115;-36
2021/11/20 06:49:01;;;;;;;5.55;3.15;;;11.40;91.60;;;;;;5056566;28;20090;-36
2021/11/20 06:51:27;;;;;;;4.85;2.90;;;11.40;91.50;;;;;;5056535;28;20116;-37
2021/11/20 06:53:53;;;;;;;6.05;3.70;;;11.50;91.40;;;;;;5056568;28;20063;-36
2021/11/20 06:56:40;;;;;;;4.05;2.88;;;11.50;91.30;;;;;;5056103;28;20020;-36
2021/11/20 06:59:13;;;;;;;6.78;3.33;;;11.50;91.10;;;;;;5056490;28;20036;-37
2021/11/20 07:01:39;;;;;;;6.25;2.78;;;11.60;91.00;;;;;;5056357;28;20033;-36
2021/11/20 07:04:11;;;;;;;5.50;2.80;;;11.60;91.10;;;;;;5054974;28;20366;-36
2021/11/20 07:06:39;;;;;;;8.20;3.10;;;11.70;90.70;;;;;;5055967;28;20028;-36
2021/11/20 07:09:06;;;;;;;5.25;3.40;;;11.70;90.60;;;;;;5053193;28;20057;-35
2021/11/20 07:11:32;;;;;;;5.25;2.75;;;11.80;90.30;;;;;;5055629;28;20025;-36
2021/11/20 07:13:58;;;;;;;5.53;2.65;;;11.80;90.00;;;;;;5056232;28;20295;-37
2021/11/20 07:16:27;;;;;;;5.30;3.08;;;11.80;89.80;;;;;;5054412;28;20029;-37
2021/11/20 07:18:53;;;;;;;5.00;3.60;;;11.90;89.50;;;;;;5055543;28;20044;-34
2021/11/20 07:21:24;;;;;;;4.53;3.00;;;11.90;89.50;;;;;;5055425;28;20321;-34
2021/11/20 07:23:54;;;;;;;7.53;2.97;;;12.00;89.10;;;;;;5055552;28;20060;-37
2021/11/20 07:26:21;;;;;;;6.95;3.05;;;12.10;88.80;;;;;;5055242;28;20108;-35
2021/11/20 07:28:47;;;;;;;10.18;3.53;;;12.10;88.50;;;;;;5053859;28;20090;-35
2021/11/20 07:31:13;;;;;;;4.00;3.10;;;12.20;88.10;;;;;;5054543;28;20032;-35
2021/11/20 07:33:39;;;;;;;5.70;3.67;;;12.20;87.70;;;;;;5055314;28;20028;-34
2021/11/20 07:36:07;;;;;;;6.32;3.38;;;12.30;87.10;;;;;;5055542;28;20087;-35
2021/11/20 07:38:41;;;;;;;5.93;3.20;;;12.30;86.70;;;;;;5055133;28;20554;-36
2021/11/20 07:41:09;;;;;;;4.88;3.00;;;12.30;86.40;;;;;;5055077;28;20021;-37
2021/11/20 07:43:35;;;;;;;4.78;2.78;;;12.40;86.00;;;;;;5055187;28;20045;-36
2021/11/20 07:46:02;;;;;;;7.03;4.30;;;12.40;85.80;;;;;;5055340;28;20433;-37
2021/11/20 07:48:28;;;;;;;6.25;3.42;;;12.50;85.60;;;;;;5055347;28;20029;-37
2021/11/20 07:50:56;;;;;;;6.20;3.20;;;12.50;84.80;;;;;;5054440;28;20321;-35
2021/11/20 07:53:24;;;;;;;7.82;3.33;;;12.50;84.70;;;;;;5053824;28;20471;-35
2021/11/20 07:55:50;;;;;;;5.82;3.30;;;12.60;84.20;;;;;;5054658;28;20094;-37
2021/11/20 07:58:18;;;;;;;8.57;3.08;;;12.60;84.00;;;;;;5054953;28;20033;-38
2021/11/20 08:00:44;;;;;;;6.72;3.08;;;12.50;83.40;;;;;;5055212;28;20103;-37
2021/11/20 08:03:12;;;;;;;4.45;3.10;;;12.60;83.30;;;;;;5051327;28;20040;-34
2021/11/20 08:05:39;;;;;;;5.65;3.42;;;12.50;82.80;;;;;;5035348;28;20025;-36
2021/11/20 08:08:05;;;;;;;7.57;3.58;;;12.60;82.90;;;;;;5034930;28;20030;-36
2021/11/20 08:10:33;;;;;;;8.98;3.55;;;12.60;83.00;;;;;;5035012;28;20034;-36
2021/11/20 08:12:59;;;;;;;8.23;3.10;;;12.60;82.90;;;;;;5035182;28;20052;-36
2021/11/20 08:15:26;;;;;;;5.15;2.75;;;12.60;82.40;;;;;;5035269;28;20120;-36
2021/11/20 08:17:51;;;;;;;6.18;2.70;;;12.70;82.20;;;;;;5034849;28;20112;-36
2021/11/20 08:20:20;;;;;;;10.27;3.40;;;12.70;81.80;;;;;;5033593;28;20188;-36
2021/11/20 08:22:46;;;;;;;9.80;3.50;;;12.70;81.30;;;;;;5034795;28;20021;-35
2021/11/20 08:25:20;;;;;;;4.90;2.97;;;12.80;81.00;;;;;;5035088;28;20026;-36
2021/11/20 08:27:46;;;;;;;5.95;2.90;;;12.90;81.50;;;;;;5034694;28;20025;-35
2021/11/20 08:30:15;;;;;;;4.78;2.75;;;12.90;80.40;;;;;;5033904;28;20163;-35
2021/11/20 08:32:42;;;;;;;6.90;3.00;;;13.00;79.90;;;;;;5034725;28;20029;-37
2021/11/20 08:35:08;;;;;;;9.38;2.53;;;13.10;79.50;;;;;;5034926;28;20044;-36
2021/11/20 08:37:34;;;;;;;6.00;3.42;;;13.10;78.30;;;;;;5034725;28;20025;-36
2021/11/20 08:40:03;;;;;;;8.30;3.42;;;13.20;78.30;;;;;;5035154;28;20042;-37
2021/11/20 08:42:30;;;;;;;8.05;2.60;;;13.20;77.80;;;;;;5034368;28;20057;-35
2021/11/20 08:44:56;;;;;;;7.38;3.33;;;13.20;76.10;;;;;;5044504;28;20352;-35
2021/11/20 08:47:22;;;;;;;9.98;3.10;;;13.10;75.10;;;;;;5054628;28;20021;-34
2021/11/20 08:49:49;;;;;;;10.10;3.63;;;13.10;75.20;;;;;;5054903;28;20049;-35
2021/11/20 08:52:14;;;;;;;9.45;2.78;;;13.10;75.20;;;;;;5054562;28;20037;-35
2021/11/20 08:54:40;;;;;;;12.02;3.10;;;13.10;74.90;;;;;;5054828;28;20041;-35
2021/11/20 08:57:06;;;;;;;6.45;2.90;;;13.20;74.60;;;;;;5054593;28;20047;-35
2021/11/20 08:59:32;;;;;;;8.18;3.13;;;13.20;74.20;;;;;;5054980;28;20132;-36
2021/11/20 09:02:01;;;;;;;6.70;2.97;;;13.20;73.80;;;;;;5054763;28;20029;-36
2021/11/20 09:04:35;;;;;;;7.43;2.92;;;13.20;73.30;;;;;;5058441;28;20036;-38
2021/11/20 09:07:15;;;;;;;8.32;3.25;;;13.30;72.90;;;;;;5057005;28;20033;-37
2021/11/20 09:09:44;;;;;;;6.97;3.13;;;13.30;72.50;;;;;;5058356;28;20085;-37
2021/11/20 09:12:48;;;;;;;7.80;3.50;;;13.30;72.30;;;;;;5057951;28;20036;-35
2021/11/20 09:15:30;;;;;;;7.03;2.97;;;13.30;71.80;;;;;;5057983;28;20056;-36
2021/11/20 09:17:55;;;;;;;9.02;2.60;;;13.30;71.90;;;;;;5058050;28;20318;-34
2021/11/20 09:20:21;;;;;;;6.55;2.60;;;13.30;71.50;;;;;;5057515;28;20031;-35
2021/11/20 09:22:47;;;;;;;7.38;2.80;;;13.30;71.70;;;;;;5057425;28;20410;-37
2021/11/20 09:25:14;;;;;;;12.40;3.42;;;13.30;71.50;;;;;;5057768;28;20098;-37
2021/11/20 09:27:40;;;;;;;7.30;3.17;;;13.30;71.70;;;;;;5057758;28;20029;-36
2021/11/20 09:30:09;;;;;;;8.95;3.08;;;13.30;71.60;;;;;;5058105;28;20048;-36
2021/11/20 09:32:36;;;;;;;5.28;2.38;;;13.30;71.60;;;;;;5057298;28;20037;-38
2021/11/20 09:35:03;;;;;;;7.57;3.38;;;13.30;71.50;;;;;;5057621;28;20040;-36
2021/11/20 09:37:29;;;;;;;7.38;2.88;;;13.30;71.50;;;;;;5057280;28;20352;-35
2021/11/20 09:39:55;;;;;;;12.48;3.25;;;13.30;71.40;;;;;;5057453;28;20033;-36
2021/11/20 09:42:42;;;;;;;14.68;3.45;;;13.30;71.30;;;;;;5057056;28;20310;-36
2021/11/20 09:45:17;;;;;;;7.90;3.10;;;13.40;71.30;;;;;;5057701;28;20029;-37
2021/11/20 09:47:51;;;;;;;13.00;2.90;;;13.30;70.60;;;;;;5057179;28;20021;-35
2021/11/20 09:50:42;;;;;;;8.00;2.70;;;13.30;70.80;;;;;;5057267;28;20117;-36
2021/11/20 09:53:08;;;;;;;;;;;13.30;70.60;;;;;;5057527;28;20048;-35
2021/11/20 09:55:44;;;;;;;10.27;2.72;;;13.30;70.60;;;;;;5057240;28;20305;-35
2021/11/20 09:58:13;;;;;;;10.18;3.00;;;13.20;70.10;;;;;;5056999;28;20033;-36
2021/11/20 10:00:58;;;;;;;7.47;2.63;;;13.20;70.20;;;;;;5057134;28;20511;-37
2021/11/20 10:03:29;;;;;;;8.48;2.85;;;13.20;69.70;;;;;;5053650;28;20021;-35
2021/11/20 10:06:10;;;;;;;11.25;3.17;;;13.30;69.80;;;;;;5057352;28;20096;-38
2021/11/20 10:08:45;;;;;;;5.68;2.88;;;13.30;69.90;;;;;;5057328;28;20028;-37
2021/11/20 10:11:45;;;;;;;7.43;2.90;;;13.30;69.40;;;;;;5056472;28;20060;-36
2021/11/20 10:14:27;;;;;;;7.47;3.13;;;13.30;68.70;;;;;;5055378;28;20398;-36
2021/11/20 10:16:57;;;;;;;11.82;3.30;;;13.30;68.70;;;;;;5054903;28;20128;-35
2021/11/20 10:19:36;;;;;;;7.18;2.97;;;13.30;68.60;;;;;;5056882;28;20115;-37
2021/11/20 10:22:08;;;;;;;10.38;2.63;;;13.40;68.60;;;;;;5056707;28;20091;-36
2021/11/20 10:25:03;;;;;;;7.40;2.90;;;13.40;68.40;;;;;;5056994;28;20117;-35
2021/11/20 10:27:39;;;;;;;7.05;2.72;;;13.50;67.30;;;;;;5056403;28;20029;-35
2021/11/20 10:30:22;;;;;;;8.60;3.35;;;13.40;66.70;;;;;;5056444;28;20041;-37
2021/11/20 10:33:28;;;;;;;8.38;2.83;;;13.50;66.70;;;;;;5056713;28;20302;-37
2021/11/20 10:36:20;;;;;;;22.15;3.75;;;13.40;65.90;;;;;;5056885;28;20029;-35
2021/11/20 10:38:54;;;;;;;13.55;3.15;;;13.40;66.10;;;;;;5056536;28;20052;-37
2021/11/20 10:41:32;;;;;;;10.05;3.70;;;13.40;66.30;;;;;;5054944;28;20033;-36
2021/11/20 10:44:43;;;;;;;9.93;2.88;;;13.40;66.70;;;;;;5056228;28;20045;-37
2021/11/20 10:47:12;;;;;;;9.65;3.00;;;13.40;66.10;;;;;;5054845;28;20039;-35
2021/11/20 10:49:52;;;;;;;9.00;2.90;;;13.50;65.90;;;;;;5056682;28;20037;-35
2021/11/20 10:52:49;;;;;;;9.23;2.20;;;13.50;65.00;;;;;;5051661;28;20028;-35
2021/11/20 10:55:33;;;;;;;9.32;2.80;;;13.50;64.90;;;;;;5056052;28;20037;-35
2021/11/20 10:58:23;;;;;;;11.75;3.28;;;13.40;64.50;;;;;;5055434;28;20021;-36
2021/11/20 11:00:58;;;;;;;5.93;2.55;;;13.40;64.30;;;;;;5055830;28;20074;-34
2021/11/20 11:03:35;;;;;;;12.60;2.65;;;13.40;64.90;;;;;;5055884;28;20040;-36
2021/11/20 11:06:36;;;;;;;8.98;2.47;;;13.40;64.40;;;;;;5055812;28;20017;-39
2021/11/20 11:09:27;;;;;;;10.57;2.47;;;13.50;64.30;;;;;;5048906;28;20033;-35
2021/11/20 11:12:22;;;;;;;8.43;2.53;;;13.50;64.20;;;;;;5035753;28;20029;-36
2021/11/20 11:15:21;;;;;;;5.93;2.45;;;13.60;64.00;;;;;;5035421;28;20041;-37
2021/11/20 11:18:02;;;;;;;9.77;3.13;;;13.60;63.60;;;;;;5035836;28;20052;-36
2021/11/20 11:21:07;;;;;;;7.25;2.42;;;13.70;63.80;;;;;;5035916;28;20032;-35
2021/11/20 11:23:35;;;;;;;9.07;3.20;;;13.70;62.80;;;;;;5035546;28;20113;-35
2021/11/20 11:26:08;;;;;;;9.02;3.13;;;13.70;62.90;;;;;;5035159;28;20353;-35
2021/11/20 11:29:14;;;;;;;5.25;2.50;;;13.70;62.40;;;;;;5035713;28;20040;-37
2021/11/20 11:31:42;;;;;;;9.70;2.60;;;13.70;60.60;;;;;;5035310;28;20026;-36
2021/11/20 11:34:07;;;;;;;11.15;2.95;;;13.60;60.30;;;;;;5035402;28;20112;-37
2021/11/20 11:37:07;;;;;;;8.43;2.70;;;13.60;60.60;;;;;;5035136;28;20125;-35
2021/11/20 11:39:45;;;;;;;19.20;3.37;;;13.60;59.50;;;;;;5035814;28;20037;-34
2021/11/20 11:42:24;;;;;;;8.23;2.58;;;13.60;59.10;;;;;;5034658;28;20281;-35
2021/11/20 11:45:22;;;;;;;10.30;2.55;;;13.70;58.30;;;;;;5035391;28;20045;-34
2021/11/20 11:47:47;;;;;;;10.82;2.70;;;13.70;57.60;;;;;;5034736;28;20046;-34
2021/11/20 11:50:23;;;;;;;11.55;2.92;;;13.70;58.00;;;;;;5035564;28;20329;-34
2021/11/20 11:53:11;;;;;;;16.27;2.95;;;13.60;57.90;;;;;;5035178;28;20330;-36
2021/11/20 11:55:43;;;;;;;11.32;3.40;;;13.60;57.50;;;;;;5035298;28;20029;-47
2021/11/20 11:58:21;;;;;;;7.78;2.28;;;13.60;57.20;;;;;;5034910;28;20044;-42
2021/11/20 12:00:53;;;;;;;13.90;2.88;;;13.60;56.80;;;;;;5035435;28;20418;-41
2021/11/20 12:03:25;;;;;;;7.57;2.30;;;13.60;56.90;;;;;;5035013;28;20060;-33
2021/11/20 12:06:03;;;;;;;7.80;2.55;;;13.60;56.90;;;;;;5035270;28;20056;-33
2021/11/20 12:08:29;;;;;;;8.90;2.78;;;13.50;57.40;;;;;;5035508;28;20060;-40
2021/11/20 12:11:07;;;;;;;8.80;2.83;;;13.50;58.10;;;;;;5035525;28;20034;-42
2021/11/20 12:13:41;;;;;;;9.38;3.10;;;13.50;58.70;;;;;;5035272;28;20100;-32
2021/11/20 12:16:10;;;;;;;15.57;2.90;;;13.50;59.30;;;;;;5034979;28;20033;-40
2021/11/20 12:18:41;;;;;;;7.72;2.33;;;13.40;59.30;;;;;;5034823;28;20045;-42
2021/11/20 12:21:19;;;;;;;9.77;2.35;;;13.50;59.30;;;;;;5034984;28;20089;-34
2021/11/20 12:23:49;;;;;;;8.95;2.75;;;13.40;59.10;;;;;;5034983;28;20029;-33
2021/11/20 12:26:32;;;;;;;10.30;2.97;;;13.40;58.70;;;;;;5033568;28;20317;-32
2021/11/20 12:29:16;;;;;;;11.75;3.08;;;13.40;58.40;;;;;;5034770;28;20034;-40
2021/11/20 12:31:54;;;;;;;9.20;3.40;;;13.30;56.80;;;;;;5034555;28;20026;-41
2021/11/20 12:34:58;;;;;;;11.05;3.75;;;13.30;56.40;;;;;;5035088;28;20041;-40
2021/11/20 12:37:40;;;;;;;7.93;2.67;;;13.30;55.80;;;;;;5035723;28;20053;-32
2021/11/20 12:40:24;;;;;;;14.85;3.15;;;13.20;55.80;;;;;;5038980;28;20167;-32
2021/11/20 12:43:28;;;;;;;11.00;2.83;;;13.20;56.20;;;;;;5038241;28;20511;-41
2021/11/20 12:46:31;;;;;;;9.35;2.90;;;13.10;55.80;;;;;;5038836;28;20041;-39
2021/11/20 12:49:27;;;;;;;10.05;3.58;;;13.10;56.50;;;;;;5038915;28;20409;-40
2021/11/20 12:51:52;;;;;;;8.82;2.97;;;13.10;56.90;;;;;;5038301;28;20021;-39
2021/11/20 12:54:46;;;;;;;18.88;3.70;;;13.10;57.10;;;;;;5038773;28;20030;-40
2021/11/20 12:57:42;;;;;;;10.40;3.22;;;13.10;57.40;;;;;;5038670;28;20105;-33
2021/11/20 13:00:08;;;;;;;11.85;3.03;;;13.00;57.70;;;;;;5038745;28;20495;-40
2021/11/20 13:02:47;;;;;;;9.73;3.10;;;13.00;58.10;;;;;;5038496;28;20386;-34
2021/11/20 13:05:18;;;;;;;16.15;4.07;;;13.00;57.80;;;;;;5038821;28;20037;-36
2021/11/20 13:08:22;;;;;;;12.40;3.97;;;13.00;56.50;;;;;;5038466;28;20026;-39